MBO weather

Mamburao Airport
Mindoro Occidental Province, Philippines

Public forecast

Using degrees Celsius for public forecast. Weather courtesy of forecast.io.

Closest aviation weather report (METAR) to Mamburao Airport

Closest report is Ninoy Aquino International Airport, 81.7 nm (151.4 km) NNE. Retrieved 2019/12/08 02:00 UTC (43 minutes ago):

RPLL 080200Z 28005KT 240V310 9999 FEW023 SCT090 28/21 Q1014 NOSIG RMK A2994

Closest aviation forecast (TAF) to Mamburao Airport

Closest forecast is Ninoy Aquino International Airport, 81.7 nm (151.4 km) NNE. Retrieved 2019-12-08 00:00 UTC (3 hours ago):

TAF RPLL 072300Z 0800/0906 08006KT 9999 FEW025 TX31/0806Z TN25/0821Z TEMPO 0803/0809 09010KT SCT023 TEMPO 0809/0815 12005KT